Time;durP1;ratioP1;P1;durP2;ratioP2;P2;SDS_P1;SDS_P2;PMS_P1;PMS_P2;Temp;Humidity;BMP_temperature;BMP_pressure;BME280_temperature;BME280_humidity;BME280_pressure;Samples;Min_cycle;Max_cycle;Signal;HPM_P1;HPM_P2
2023/11/06 00:00:41;;;;;;;0.95;0.60;;;;;;;6.47;100.00;91350.56;6158186;23;20017;-76
2023/11/06 00:03:06;;;;;;;0.70;0.70;;;;;;;6.52;100.00;91359.31;6158158;23;20020;-76
2023/11/06 00:05:32;;;;;;;0.60;0.60;;;;;;;6.61;100.00;91355.00;6160171;23;20005;-77
2023/11/06 00:07:58;;;;;;;0.80;0.80;;;;;;;6.63;100.00;91360.69;6161747;23;20014;-77
2023/11/06 00:10:23;;;;;;;0.82;0.80;;;;;;;6.62;100.00;91374.72;6160724;23;20031;-75
2023/11/06 00:12:49;;;;;;;2.95;1.20;;;;;;;6.50;100.00;91375.19;6160751;23;20017;-77
2023/11/06 00:15:15;;;;;;;1.75;1.10;;;;;;;6.41;100.00;91369.91;6161716;23;20002;-76
2023/11/06 00:17:42;;;;;;;1.13;0.93;;;;;;;6.36;100.00;91377.78;6160344;23;20069;-76
2023/11/06 00:20:11;;;;;;;1.77;0.80;;;;;;;6.30;100.00;91378.94;6159863;23;20029;-77
2023/11/06 00:22:38;;;;;;;0.82;0.82;;;;;;;6.27;100.00;91374.31;6158273;23;20001;-75
2023/11/06 00:25:07;;;;;;;0.70;0.70;;;;;;;6.25;100.00;91384.22;6160253;23;20021;-77
2023/11/06 00:27:33;;;;;;;0.60;0.60;;;;;;;6.24;100.00;91390.47;6159878;23;20021;-76
2023/11/06 00:29:59;;;;;;;1.02;0.73;;;;;;;6.24;100.00;91385.28;6158556;23;20094;-77
2023/11/06 00:32:24;;;;;;;1.08;0.80;;;;;;;6.13;100.00;91394.31;6160228;23;20014;-77
2023/11/06 00:34:50;;;;;;;0.65;0.65;;;;;;;6.10;100.00;91405.25;6159835;23;20479;-77
2023/11/06 00:37:17;;;;;;;0.65;0.65;;;;;;;5.95;100.00;91404.44;6156283;23;20002;-75
2023/11/06 00:39:42;;;;;;;0.75;0.75;;;;;;;5.84;100.00;91403.03;6159432;23;20028;-77
2023/11/06 00:42:08;;;;;;;0.63;0.63;;;;;;;5.71;100.00;91411.53;6262874;22;20081;-77
2023/11/06 00:44:34;;;;;;;0.70;0.70;;;;;;;5.59;100.00;91415.31;6260197;22;20016;-77
2023/11/06 00:47:00;;;;;;;0.63;0.63;;;;;;;5.48;100.00;91421.72;6160294;22;20017;-77
2023/11/06 00:49:26;;;;;;;0.90;0.70;;;;;;;5.40;100.00;91422.31;6262251;22;20431;-76
2023/11/06 00:51:52;;;;;;;0.65;0.65;;;;;;;5.30;100.00;91425.84;6262107;22;20017;-76
2023/11/06 00:54:18;;;;;;;0.60;0.60;;;;;;;5.20;100.00;91431.94;6159869;22;20006;-77
2023/11/06 00:56:43;;;;;;;0.80;0.80;;;;;;;5.14;100.00;91433.03;6262899;22;20055;-77
2023/11/06 00:59:09;;;;;;;0.80;0.80;;;;;;;5.05;100.00;91439.88;6159179;23;20013;-76
2023/11/06 01:01:35;;;;;;;0.82;0.82;;;;;;;5.03;100.00;91447.19;6262887;22;20024;-76
2023/11/06 01:04:01;;;;;;;0.77;0.75;;;;;;;4.99;100.00;91451.38;6261791;22;20025;-77
2023/11/06 01:06:27;;;;;;;1.60;1.00;;;;;;;4.94;100.00;91457.38;6260814;22;20021;-77
2023/11/06 01:08:54;;;;;;;0.85;0.80;;;;;;;4.87;100.00;91459.53;6159408;23;20029;-78
2023/11/06 01:11:20;;;;;;;1.38;0.98;;;;;;;4.82;100.00;91464.78;6263750;22;20017;-77
2023/11/06 01:13:46;;;;;;;1.38;1.00;;;;;;;4.81;100.00;91463.22;6237624;22;20079;-78
2023/11/06 01:16:12;;;;;;;0.98;0.90;;;;;;;4.80;100.00;91475.44;6160471;23;20074;-77
2023/11/06 01:18:38;;;;;;;0.85;0.85;;;;;;;4.81;100.00;91471.00;6159414;23;19997;-78
2023/11/06 01:21:05;;;;;;;3.50;1.05;;;;;;;4.79;100.00;91473.88;6158804;23;20024;-77
2023/11/06 01:23:31;;;;;;;0.70;0.70;;;;;;;4.79;100.00;91484.22;6159948;23;20168;-77
2023/11/06 01:25:56;;;;;;;1.48;0.90;;;;;;;4.75;100.00;91478.06;6159103;23;20048;-77
2023/11/06 01:28:22;;;;;;;0.98;0.90;;;;;;;4.91;100.00;91486.47;6262725;22;20014;-75
2023/11/06 01:30:48;;;;;;;1.17;1.00;;;;;;;4.94;100.00;91485.91;6160912;22;20036;-76
2023/11/06 01:33:15;;;;;;;1.02;0.80;;;;;;;4.89;100.00;91488.56;6159912;23;20001;-77
2023/11/06 01:35:41;;;;;;;1.58;1.15;;;;;;;4.83;100.00;91483.72;6161044;23;20013;-76
2023/11/06 01:38:07;;;;;;;0.70;0.70;;;;;;;4.76;100.00;91486.63;6263795;22;20005;-77
2023/11/06 01:40:33;;;;;;;1.02;0.93;;;;;;;4.69;100.00;91489.53;6283862;22;20023;-76
2023/11/06 01:43:06;;;;;;;1.38;1.00;;;;;;;4.60;100.00;91486.00;6286686;22;20016;-77
2023/11/06 01:45:33;;;;;;;2.75;1.00;;;;;;;4.55;100.00;91486.03;6287108;22;20319;-77
2023/11/06 01:48:00;;;;;;;1.25;1.10;;;;;;;4.51;100.00;91492.81;6286370;22;20031;-77
2023/11/06 01:50:29;;;;;;;1.48;1.10;;;;;;;4.50;100.00;91486.06;6286345;22;20192;-76
2023/11/06 01:52:55;;;;;;;1.80;1.17;;;;;;;4.49;100.00;91500.09;6283530;22;20002;-76
2023/11/06 01:55:21;;;;;;;2.30;1.30;;;;;;;4.46;100.00;91498.81;6285971;22;20016;-78
2023/11/06 01:57:47;;;;;;;1.55;1.00;;;;;;;4.44;100.00;91497.53;6286085;22;20079;-76
2023/11/06 02:00:15;;;;;;;1.60;0.90;;;;;;;4.42;100.00;91500.41;6257995;22;20047;-76
2023/11/06 02:02:43;;;;;;;0.65;0.65;;;;;;;4.49;100.00;91500.84;6283596;22;20010;-77
2023/11/06 02:05:11;;;;;;;0.70;0.70;;;;;;;4.76;100.00;91509.97;6284597;22;20011;-77
2023/11/06 02:07:37;;;;;;;0.68;0.68;;;;;;;5.07;100.00;91509.66;6285153;22;20007;-77
2023/11/06 02:10:03;;;;;;;1.25;0.95;;;;;;;5.18;100.00;91511.09;6285564;22;20058;-78
2023/11/06 02:12:31;;;;;;;0.80;0.80;;;;;;;5.34;100.00;91511.69;6258799;22;20011;-76
2023/11/06 02:14:57;;;;;;;1.50;1.10;;;;;;;5.28;100.00;91520.59;6284850;22;20364;-77
2023/11/06 02:17:25;;;;;;;1.10;0.90;;;;;;;5.26;100.00;91517.50;6259201;22;20039;-77
2023/11/06 02:19:52;;;;;;;0.85;0.85;;;;;;;5.22;100.00;91517.25;6284170;22;20357;-76
2023/11/06 02:22:19;;;;;;;0.70;0.70;;;;;;;5.46;100.00;91517.25;6283675;22;19999;-77
2023/11/06 02:24:48;;;;;;;3.58;0.90;;;;;;;5.50;100.00;91518.25;6286027;22;20349;-77
2023/11/06 02:27:16;;;;;;;0.88;0.88;;;;;;;5.55;100.00;91523.38;6283754;22;20011;-76
2023/11/06 02:29:42;;;;;;;1.38;1.02;;;;;;;5.67;100.00;91530.00;6285797;22;20612;-77
2023/11/06 02:32:09;;;;;;;1.35;0.80;;;;;;;5.66;100.00;91537.00;6286190;22;20030;-77
2023/11/06 02:34:40;;;;;;;1.15;0.90;;;;;;;5.53;100.00;91535.84;6285180;22;20028;-77
2023/11/06 02:37:06;;;;;;;0.70;0.70;;;;;;;5.37;100.00;91544.88;6286129;22;20060;-78
2023/11/06 02:39:34;;;;;;;1.85;0.90;;;;;;;5.23;100.00;91552.56;6286214;22;20345;-77
2023/11/06 02:42:04;;;;;;;0.70;0.60;;;;;;;5.11;100.00;91565.13;6285074;22;20030;-77
2023/11/06 02:44:31;;;;;;;0.88;0.80;;;;;;;5.01;100.00;91568.59;6285882;22;20097;-77
2023/11/06 02:46:57;;;;;;;0.70;0.70;;;;;;;4.91;100.00;91566.88;6286021;22;20031;-75
2023/11/06 02:49:26;;;;;;;0.90;0.80;;;;;;;4.79;100.00;91562.03;6286158;22;20007;-76
2023/11/06 02:51:52;;;;;;;0.70;0.70;;;;;;;4.71;100.00;91557.44;6284442;22;20012;-76
2023/11/06 02:54:25;;;;;;;0.70;0.70;;;;;;;4.69;100.00;91558.75;6285449;22;20016;-77
2023/11/06 02:56:51;;;;;;;0.80;0.80;;;;;;;4.65;100.00;91563.72;6284207;22;20011;-76
2023/11/06 02:59:18;;;;;;;0.80;0.80;;;;;;;4.59;100.00;91565.59;6283332;22;20083;-77
2023/11/06 03:01:44;;;;;;;2.28;0.80;;;;;;;4.54;100.00;91570.78;6283802;22;20026;-77
2023/11/06 03:04:13;;;;;;;1.38;1.08;;;;;;;4.49;100.00;91567.47;6282802;22;20004;-76
2023/11/06 03:06:40;;;;;;;2.38;0.77;;;;;;;4.43;100.00;91564.13;6282954;22;20012;-77
2023/11/06 03:09:08;;;;;;;1.05;0.98;;;;;;;4.36;100.00;91561.84;6257334;22;20042;-77
2023/11/06 03:11:38;;;;;;;1.48;0.85;;;;;;;4.31;100.00;91556.72;6283158;22;20039;-78
2023/11/06 03:14:07;;;;;;;1.00;0.90;;;;;;;4.25;100.00;91557.00;6283860;22;20016;-77
2023/11/06 03:16:34;;;;;;;1.20;1.00;;;;;;;4.25;100.00;91565.53;6282218;22;20000;-76
2023/11/06 03:19:00;;;;;;;0.80;0.77;;;;;;;4.25;100.00;91567.38;6284038;22;20015;-77
2023/11/06 03:21:26;;;;;;;0.93;0.85;;;;;;;4.22;100.00;91563.50;6257996;22;20449;-77
2023/11/06 03:23:52;;;;;;;1.42;0.82;;;;;;;4.20;100.00;91557.81;6283292;22;20081;-77
2023/11/06 03:26:17;;;;;;;1.40;0.82;;;;;;;4.17;100.00;91561.72;6284473;22;20349;-77
2023/11/06 03:28:43;;;;;;;1.17;0.88;;;;;;;4.13;100.00;91559.94;6284298;22;20035;-76
2023/11/06 03:31:10;;;;;;;0.75;0.75;;;;;;;4.10;100.00;91555.31;6284398;22;19999;-77
2023/11/06 03:33:35;;;;;;;0.60;0.60;;;;;;;4.08;100.00;91557.38;6282046;22;20081;-76
2023/11/06 03:36:03;;;;;;;1.00;0.80;;;;;;;4.06;100.00;91554.28;6282463;22;20100;-76
2023/11/06 03:38:29;;;;;;;0.80;0.80;;;;;;;4.04;100.00;91556.38;6282636;22;20331;-76
2023/11/06 03:40:55;;;;;;;0.70;0.70;;;;;;;4.06;100.00;91559.47;6282016;22;20046;-76
2023/11/06 03:43:21;;;;;;;0.60;0.60;;;;;;;4.15;100.00;91561.22;6283088;22;20012;-76
2023/11/06 03:45:47;;;;;;;1.63;0.95;;;;;;;4.30;100.00;91570.72;6283444;22;20075;-77
2023/11/06 03:48:13;;;;;;;0.70;0.70;;;;;;;4.35;100.00;91564.72;6283236;22;20349;-76
2023/11/06 03:50:42;;;;;;;2.20;0.95;;;;;;;4.44;100.00;91576.06;6282344;22;20630;-76
2023/11/06 03:53:14;;;;;;;0.70;0.70;;;;;;;4.47;100.00;91577.34;6283386;22;20043;-76
2023/11/06 03:55:40;;;;;;;0.70;0.70;;;;;;;4.46;100.00;91573.97;6284669;22;20557;-78
2023/11/06 03:58:05;;;;;;;0.70;0.70;;;;;;;4.47;100.00;91580.69;6284306;22;20013;-77
2023/11/06 04:00:32;;;;;;;1.08;0.60;;;;;;;4.56;100.00;91576.47;6282694;22;20026;-77
2023/11/06 04:02:59;;;;;;;0.63;0.63;;;;;;;4.68;100.00;91583.13;6258068;22;20075;-77
2023/11/06 04:05:25;;;;;;;0.80;0.73;;;;;;;4.75;100.00;91581.78;6284754;22;20042;-77
2023/11/06 04:07:51;;;;;;;0.88;0.88;;;;;;;4.82;100.00;91589.25;6283600;22;20069;-76
2023/11/06 04:10:17;;;;;;;0.70;0.70;;;;;;;4.82;100.00;91581.47;6284727;22;20036;-77
2023/11/06 04:12:44;;;;;;;0.88;0.80;;;;;;;4.77;100.00;91584.88;6284233;22;20032;-77
2023/11/06 04:15:10;;;;;;;2.17;0.88;;;;;;;4.71;100.00;91591.16;6284589;22;20015;-77
2023/11/06 04:17:38;;;;;;;0.90;0.90;;;;;;;4.63;100.00;91589.13;6282201;22;20007;-77
2023/11/06 04:20:04;;;;;;;0.70;0.70;;;;;;;4.55;100.00;91582.72;6282964;22;20016;-76
2023/11/06 04:22:29;;;;;;;0.93;0.88;;;;;;;4.47;100.00;91583.28;6283620;22;20000;-78
2023/11/06 04:24:55;;;;;;;0.70;0.70;;;;;;;4.42;100.00;91588.50;6283850;22;20019;-76
2023/11/06 04:27:21;;;;;;;1.00;0.90;;;;;;;4.35;100.00;91578.44;6284359;22;19999;-77
2023/11/06 04:29:47;;;;;;;0.75;0.75;;;;;;;4.28;100.00;91583.16;6284378;22;20012;-77
2023/11/06 04:32:14;;;;;;;1.02;0.88;;;;;;;4.25;100.00;91583.69;6285328;22;20006;-76
2023/11/06 04:34:40;;;;;;;0.63;0.60;;;;;;;4.21;100.00;91585.28;6282179;22;20023;-77
2023/11/06 04:37:12;;;;;;;0.95;0.82;;;;;;;4.19;100.00;91587.38;6281694;22;19999;-77
2023/11/06 04:39:43;;;;;;;1.73;0.88;;;;;;;4.18;100.00;91590.97;6283293;22;20016;-78
2023/11/06 04:42:10;;;;;;;0.70;0.70;;;;;;;4.16;100.00;91596.41;6157316;22;20409;-77
2023/11/06 04:44:36;;;;;;;0.80;0.80;;;;;;;4.12;100.00;91598.03;6157718;23;20033;-77
2023/11/06 04:47:03;;;;;;;2.47;0.90;;;;;;;4.12;100.00;91592.84;6156724;23;20088;-77
2023/11/06 04:49:29;;;;;;;1.63;1.02;;;;;;;4.12;100.00;91594.63;6157698;23;20093;-77
2023/11/06 04:51:55;;;;;;;0.80;0.80;;;;;;;4.09;100.00;91597.78;6260453;22;20013;-77
2023/11/06 04:54:20;;;;;;;0.88;0.88;;;;;;;4.07;100.00;91602.44;6157592;23;20002;-76
2023/11/06 04:56:49;;;;;;;1.00;0.90;;;;;;;4.06;100.00;91611.28;6157218;22;20021;-76
2023/11/06 04:59:15;;;;;;;0.80;0.80;;;;;;;4.03;100.00;91604.00;6256681;22;20028;-77
2023/11/06 05:01:41;;;;;;;0.70;0.70;;;;;;;3.99;100.00;91608.19;6156782;23;20009;-76
2023/11/06 05:04:07;;;;;;;0.80;0.80;;;;;;;3.93;100.00;91607.44;6259978;22;20002;-77
2023/11/06 05:06:33;;;;;;;0.82;0.70;;;;;;;3.89;100.00;91606.41;6157942;22;20470;-77
2023/11/06 05:09:00;;;;;;;1.25;0.90;;;;;;;3.84;100.00;91607.22;6157197;22;20092;-77
2023/11/06 05:11:26;;;;;;;0.98;0.90;;;;;;;3.83;100.00;91621.22;6261219;22;20013;-76
2023/11/06 05:13:54;;;;;;;0.63;0.63;;;;;;;3.80;100.00;91613.97;6156947;22;20002;-77
2023/11/06 05:16:20;;;;;;;0.73;0.73;;;;;;;3.77;100.00;91619.69;6156720;23;20099;-76
2023/11/06 05:18:46;;;;;;;1.05;0.88;;;;;;;3.77;100.00;91624.84;6156134;22;20041;-76
2023/11/06 05:21:12;;;;;;;0.65;0.65;;;;;;;3.77;100.00;91627.44;6259589;22;20024;-77
2023/11/06 05:23:38;;;;;;;0.98;0.93;;;;;;;3.77;100.00;91632.63;6157056;23;20088;-77
2023/11/06 05:26:04;;;;;;;1.60;0.95;;;;;;;3.79;100.00;91629.78;6260002;22;20010;-76
2023/11/06 05:28:30;;;;;;;0.80;0.80;;;;;;;3.77;100.00;91634.44;6156492;23;20493;-77
2023/11/06 05:30:55;;;;;;;1.13;0.82;;;;;;;3.74;100.00;91635.75;6156853;23;20067;-77
2023/11/06 05:33:21;;;;;;;1.20;1.10;;;;;;;3.74;100.00;91641.69;6155727;22;20089;-77
2023/11/06 05:35:47;;;;;;;0.80;0.80;;;;;;;3.77;100.00;91640.38;6258830;22;20013;-76
2023/11/06 05:38:12;;;;;;;1.10;0.93;;;;;;;3.77;100.00;91645.56;6155138;23;20005;-77
2023/11/06 05:40:38;;;;;;;0.90;0.90;;;;;;;3.73;100.00;91649.72;6153999;22;20098;-76
2023/11/06 05:43:04;;;;;;;0.80;0.80;;;;;;;3.72;100.00;91655.94;6156206;23;20356;-78
2023/11/06 05:45:29;;;;;;;0.80;0.80;;;;;;;3.72;100.00;91653.34;6156597;23;20085;-79
2023/11/06 05:47:55;;;;;;;0.80;0.80;;;;;;;3.70;100.00;91660.59;6156306;23;20022;-77
2023/11/06 05:50:21;;;;;;;0.60;0.60;;;;;;;3.71;100.00;91664.72;6159165;23;20020;-78
2023/11/06 05:52:50;;;;;;;0.75;0.75;;;;;;;3.69;100.00;91666.81;6156510;23;20088;-78
2023/11/06 05:55:15;;;;;;;2.97;0.80;;;;;;;3.68;100.00;91665.28;6160412;23;20018;-77
2023/11/06 05:57:42;;;;;;;1.20;1.10;;;;;;;3.68;100.00;91668.63;6158816;23;20009;-76
2023/11/06 06:00:11;;;;;;;0.75;0.75;;;;;;;3.66;100.00;91675.09;6163254;23;20017;-78
2023/11/06 06:02:40;;;;;;;0.70;0.70;;;;;;;3.68;100.00;91676.41;6115126;23;20009;-79
2023/11/06 06:05:06;;;;;;;2.83;1.63;;;;;;;3.66;100.00;91686.22;6161154;23;20024;-77
2023/11/06 06:07:32;;;;;;;4.25;1.65;;;;;;;3.65;100.00;91683.94;6161699;23;20074;-78
2023/11/06 06:09:58;;;;;;;4.13;1.10;;;;;;;3.67;100.00;91694.75;6162090;23;20013;-77
2023/11/06 06:12:24;;;;;;;0.90;0.80;;;;;;;3.68;100.00;91697.09;6163192;23;20006;-77
2023/11/06 06:14:50;;;;;;;0.70;0.70;;;;;;;3.67;100.00;91703.31;6160678;23;20014;-77
2023/11/06 06:17:16;;;;;;;1.05;0.90;;;;;;;3.65;100.00;91702.81;6156706;23;20049;-78
2023/11/06 06:19:42;;;;;;;1.02;0.95;;;;;;;3.66;100.00;91722.47;6156953;23;20017;-78
2023/11/06 06:22:09;;;;;;;0.95;0.88;;;;;;;3.66;100.00;91726.88;6154993;23;20197;-78
2023/11/06 06:24:35;;;;;;;1.75;0.85;;;;;;;3.64;100.00;91728.94;6157765;23;20018;-77
2023/11/06 06:27:04;;;;;;;1.58;1.10;;;;;;;3.87;100.00;91733.56;6164992;23;20143;-78
2023/11/06 06:29:29;;;;;;;3.63;1.08;;;;;;;4.89;100.00;91740.13;6167265;23;20018;-79
2023/11/06 06:31:57;;;;;;;2.47;1.02;;;;;;;5.89;100.00;91742.44;6167009;23;20036;-78
2023/11/06 06:34:23;;;;;;;1.08;0.90;;;;;;;6.84;100.00;91749.44;6165217;23;20025;-79
2023/11/06 06:36:49;;;;;;;0.80;0.80;;;;;;;7.83;100.00;91746.94;6164423;23;19998;-78
2023/11/06 06:39:15;;;;;;;1.33;1.23;;;;;;;8.79;100.00;91759.25;6164176;23;20028;-77
2023/11/06 06:41:41;;;;;;;0.73;0.73;;;;;;;9.62;100.00;91761.66;6165600;23;20238;-79
2023/11/06 06:44:07;;;;;;;0.90;0.90;;;;;;;10.40;100.00;91766.53;6165403;23;20013;-80
2023/11/06 06:46:32;;;;;;;1.65;1.20;;;;;;;11.02;90.06;91773.50;6137769;23;20014;-81
2023/11/06 06:48:58;;;;;;;1.52;0.98;;;;;;;11.58;88.46;91768.47;6165007;23;20461;-78
2023/11/06 06:51:24;;;;;;;1.13;1.02;;;;;;;12.14;81.68;91769.34;6164117;23;20169;-78
2023/11/06 06:53:51;;;;;;;1.33;1.10;;;;;;;12.92;82.77;91768.25;6166076;23;20017;-79
2023/11/06 06:56:17;;;;;;;1.00;1.00;;;;;;;13.69;78.25;91775.97;6162227;23;19994;-79
2023/11/06 06:58:43;;;;;;;1.05;0.75;;;;;;;13.93;71.52;91773.44;6162757;23;20018;-79
2023/11/06 07:01:09;;;;;;;1.27;1.00;;;;;;;14.21;67.33;91783.44;6166132;23;20020;-79
2023/11/06 07:03:37;;;;;;;1.55;1.10;;;;;;;14.65;66.43;91783.75;6164612;23;20028;-81
2023/11/06 07:06:10;;;;;;;1.00;1.00;;;;;;;14.70;64.86;91788.03;6164283;23;19997;-81
2023/11/06 07:08:36;;;;;;;2.38;1.20;;;;;;;15.47;60.98;91789.97;6166836;23;20108;-80
2023/11/06 07:11:02;;;;;;;1.75;1.00;;;;;;;16.08;58.66;91794.38;6163702;23;20024;-78
2023/11/06 07:13:28;;;;;;;2.65;1.00;;;;;;;16.88;53.91;91792.63;6167622;23;20374;-80
2023/11/06 07:15:53;;;;;;;1.25;0.90;;;;;;;17.11;52.65;91800.69;6164307;23;20032;-79
2023/11/06 07:18:19;;;;;;;0.88;0.88;;;;;;;17.41;50.06;91801.03;6166279;23;20406;-78
2023/11/06 07:20:45;;;;;;;2.42;0.70;;;;;;;17.58;49.13;91805.91;6165948;23;20018;-77
2023/11/06 07:23:11;;;;;;;0.80;0.80;;;;;;;17.67;48.37;91811.81;6167451;23;20013;-79
2023/11/06 07:25:37;;;;;;;1.67;0.60;;;;;;;17.99;45.74;91806.44;6168681;23;20017;-79
2023/11/06 07:28:04;;;;;;;1.10;0.63;;;;;;;18.92;44.06;91810.03;6167434;23;20354;-78
2023/11/06 07:30:33;;;;;;;1.73;0.90;;;;;;;19.49;41.99;91807.47;6166531;23;20368;-78
2023/11/06 07:32:59;;;;;;;1.23;0.82;;;;;;;19.67;44.31;91815.69;6163104;23;20010;-80
2023/11/06 07:35:25;;;;;;;2.35;1.10;;;;;;;20.18;44.27;91818.66;6159972;23;20010;-82
2023/11/06 07:37:51;;;;;;;1.60;1.10;;;;;;;19.38;50.93;91822.47;6156616;23;20010;-82
2023/11/06 07:40:16;;;;;;;3.00;1.20;;;;;;;19.36;49.81;91814.88;6156405;23;20423;-81
2023/11/06 07:42:42;;;;;;;2.47;1.20;;;;;;;20.23;47.17;91822.13;6159373;23;20013;-81
2023/11/06 07:45:08;;;;;;;2.45;1.30;;;;;;;20.26;46.09;91822.16;6159160;23;20024;-81
2023/11/06 07:47:36;;;;;;;1.63;1.05;;;;;;;20.64;45.69;91820.31;6160657;23;20006;-86
2023/11/06 07:50:06;;;;;;;3.70;1.17;;;;;;;21.04;38.22;91823.38;6159696;23;20013;-80
2023/11/06 07:52:32;;;;;;;1.98;1.30;;;;;;;20.27;45.66;91823.69;6161741;23;20041;-82
2023/11/06 07:55:01;;;;;;;1.85;1.20;;;;;;;19.52;49.81;91825.34;6161294;23;20028;-80
2023/11/06 07:57:27;;;;;;;3.30;1.30;;;;;;;21.32;45.95;91826.28;6159337;23;20021;-82
2023/11/06 07:59:52;;;;;;;5.15;1.25;;;;;;;20.45;42.76;91834.53;6160651;23;20455;-81
2023/11/06 08:02:18;;;;;;;2.03;1.30;;;;;;;20.02;46.94;91828.72;6163600;23;20347;-79
2023/11/06 08:04:43;;;;;;;2.50;1.27;;;;;;;19.76;48.43;91843.53;6161399;23;20013;-81
2023/11/06 08:07:11;;;;;;;4.30;1.00;;;;;;;19.10;44.00;91852.75;6161616;23;20302;-79
2023/11/06 08:09:37;;;;;;;3.60;1.27;;;;;;;17.61;49.53;91849.47;6162338;23;20014;-81
2023/11/06 08:12:03;;;;;;;1.45;0.93;;;;;;;17.64;44.78;91859.34;6161748;23;20066;-80
2023/11/06 08:14:33;;;;;;;1.30;0.73;;;;;;;16.31;45.05;91855.31;6162029;23;20025;-80
2023/11/06 08:16:59;;;;;;;1.70;0.98;;;;;;;15.68;48.21;91859.19;6161331;23;20306;-79
2023/11/06 08:19:25;;;;;;;2.33;0.90;;;;;;;15.18;52.20;91865.59;6160127;23;20028;-81
2023/11/06 08:21:50;;;;;;;1.80;1.10;;;;;;;14.96;54.09;91869.41;6159100;23;20405;-79
2023/11/06 08:24:16;;;;;;;1.92;0.85;;;;;;;13.99;55.85;91875.88;6159512;23;20076;-79
2023/11/06 08:26:43;;;;;;;1.70;1.10;;;;;;;14.26;64.22;91879.84;6132469;23;20021;-80
2023/11/06 08:29:09;;;;;;;1.90;1.00;;;;;;;13.79;56.85;91874.78;6159874;23;20022;-80
2023/11/06 08:31:35;;;;;;;1.90;1.30;;;;;;;13.37;79.88;91880.75;6160477;23;20013;-80
2023/11/06 08:34:01;;;;;;;1.13;1.00;;;;;;;12.96;66.40;91878.75;6162229;23;20078;-80
2023/11/06 08:36:27;;;;;;;1.95;1.05;;;;;;;12.96;60.84;91874.25;6163863;23;20045;-80
2023/11/06 08:38:52;;;;;;;1.65;1.08;;;;;;;12.65;64.43;91883.19;6163142;23;20069;-79
2023/11/06 08:41:18;;;;;;;3.55;1.50;;;;;;;12.66;80.18;91882.09;6136678;23;20053;-78
2023/11/06 08:43:44;;;;;;;2.13;1.30;;;;;;;12.91;75.09;91882.31;6156326;23;20077;-77
2023/11/06 08:46:09;;;;;;;2.72;1.13;;;;;;;12.71;68.79;91889.03;6158844;23;20048;-80
2023/11/06 08:48:35;;;;;;;2.33;1.17;;;;;;;12.47;65.54;91879.81;6160742;23;20009;-77
2023/11/06 08:51:01;;;;;;;3.30;1.30;;;;;;;12.70;81.53;91888.25;6160221;23;20009;-78
2023/11/06 08:53:26;;;;;;;2.20;1.30;;;;;;;12.73;77.62;91884.22;6164926;23;20430;-79
2023/11/06 08:55:52;;;;;;;3.28;1.38;;;;;;;12.87;85.46;91890.03;6162084;23;20009;-78
2023/11/06 08:58:17;;;;;;;3.65;1.60;;;;;;;12.90;92.35;91897.31;6160961;23;20041;-77
2023/11/06 09:00:44;;;;;;;2.80;1.25;;;;;;;12.69;79.32;91896.44;6163279;23;20006;-77
2023/11/06 09:03:12;;;;;;;1.52;1.02;;;;;;;12.80;72.85;91896.88;6137885;23;20021;-77
2023/11/06 09:05:39;;;;;;;1.98;1.17;;;;;;;12.67;73.93;91904.63;6162067;23;19989;-77
2023/11/06 09:08:04;;;;;;;5.57;1.60;;;;;;;12.66;90.35;91907.56;6163196;23;20063;-77
2023/11/06 09:10:30;;;;;;;2.70;1.30;;;;;;;12.58;84.07;91911.75;6164406;23;20001;-77
2023/11/06 09:12:57;;;;;;;2.53;1.10;;;;;;;12.19;78.19;91910.88;6160128;23;20032;-80
2023/11/06 09:15:23;;;;;;;2.67;1.25;;;;;;;12.19;69.73;91912.72;6165679;23;19997;-79
2023/11/06 09:17:48;;;;;;;1.30;1.00;;;;;;;12.79;62.20;91913.72;6165479;23;20020;-77
2023/11/06 09:20:14;;;;;;;1.60;1.17;;;;;;;12.64;61.15;91910.50;6166158;23;20002;-78
2023/11/06 09:22:41;;;;;;;1.65;1.05;;;;;;;12.60;69.69;91911.44;6166278;23;20018;-77
2023/11/06 09:25:08;;;;;;;2.78;1.30;;;;;;;12.81;78.87;91916.78;6167064;23;20047;-78
2023/11/06 09:27:36;;;;;;;1.73;1.10;;;;;;;13.01;69.78;91916.13;6165981;23;20014;-77
2023/11/06 09:30:03;;;;;;;2.05;1.17;;;;;;;12.60;73.01;91919.31;6166067;23;20020;-77
2023/11/06 09:32:28;;;;;;;5.60;1.67;;;;;;;12.54;91.03;91923.97;6138577;23;20025;-78
2023/11/06 09:34:55;;;;;;;3.85;1.77;;;;;;;12.17;97.14;91928.75;6165530;23;20018;-77
2023/11/06 09:37:21;;;;;;;2.13;1.30;;;;;;;12.31;90.49;91939.09;6165878;23;20025;-78
2023/11/06 09:39:47;;;;;;;1.80;1.20;;;;;;;12.39;78.24;91940.19;6166476;23;20002;-77
2023/11/06 09:42:13;;;;;;;1.83;1.17;;;;;;;12.69;77.80;91939.22;6166342;23;20067;-78
2023/11/06 09:44:39;;;;;;;2.42;1.40;;;;;;;12.77;88.17;91940.31;6168397;23;20021;-77
2023/11/06 09:47:07;;;;;;;3.00;1.45;;;;;;;12.76;88.65;91937.97;6166803;23;20025;-78
2023/11/06 09:49:49;;;;;;;2.53;1.33;;;;;;;12.22;87.47;91940.97;6166874;23;20006;-78
2023/11/06 09:52:18;;;;;;;1.98;1.20;;;;;;;12.43;80.92;91944.53;6166916;23;20021;-78
2023/11/06 09:54:47;;;;;;;1.95;1.25;;;;;;;12.42;86.37;91947.44;6168252;23;19990;-77
2023/11/06 09:57:14;;;;;;;5.53;1.52;;;;;;;12.38;84.83;91951.75;6141086;23;20020;-77
2023/11/06 09:59:40;;;;;;;1.45;1.10;;;;;;;12.41;86.67;91956.41;6165239;23;20068;-78
2023/11/06 10:02:12;;;;;;;2.17;1.08;;;;;;;12.15;78.43;91956.41;6140930;23;20358;-79
2023/11/06 10:04:37;;;;;;;6.97;2.10;;;;;;;12.01;94.05;91961.78;6165680;23;20036;-78
2023/11/06 10:07:06;;;;;;;2.13;1.20;;;;;;;11.95;95.66;91961.16;6137334;23;20018;-78
2023/11/06 10:09:32;;;;;;;2.38;1.40;;;;;;;11.96;100.00;91954.06;6159661;23;20450;-78
2023/11/06 10:12:15;;;;;;;2.22;1.17;;;;;;;12.13;100.00;91964.56;6151814;23;20001;-77
2023/11/06 10:14:42;;;;;;;1.98;1.25;;;;;;;12.35;87.48;91965.50;6148279;23;20020;-77
2023/11/06 10:17:08;;;;;;;2.33;1.30;;;;;;;12.38;93.10;91972.75;6121897;23;19998;-76
2023/11/06 10:19:34;;;;;;;1.88;1.20;;;;;;;12.24;77.20;91971.06;6146429;23;20024;-76
2023/11/06 10:22:14;;;;;;;3.45;1.40;;;;;;;12.38;79.02;91964.88;6147820;23;20064;-77
2023/11/06 10:24:50;;;;;;;2.05;1.17;;;;;;;12.20;75.10;91964.88;6123109;23;20019;-77
2023/11/06 10:27:25;;;;;;;6.50;1.30;;;;;;;12.26;80.90;91965.50;6148270;23;20546;-77
2023/11/06 10:30:05;;;;;;;1.50;1.13;;;;;;;12.02;80.79;91966.75;6159977;23;20009;-78
2023/11/06 10:32:31;;;;;;;2.85;1.30;;;;;;;12.01;86.96;91959.16;6157732;23;20064;-78
2023/11/06 10:35:01;;;;;;;1.55;1.20;;;;;;;11.90;88.65;91963.16;6155718;23;20016;-77
2023/11/06 10:37:28;;;;;;;2.08;1.27;;;;;;;11.79;85.17;91950.31;6153441;23;20087;-77
2023/11/06 10:39:56;;;;;;;1.15;1.05;;;;;;;11.97;85.73;91956.38;6158785;23;20084;-77
2023/11/06 10:42:23;;;;;;;3.00;1.75;;;;;;;11.90;90.44;91957.91;6161475;23;20096;-78
2023/11/06 10:44:59;;;;;;;2.92;1.20;;;;;;;11.89;90.09;91965.03;6162716;23;20014;-78
2023/11/06 10:47:27;;;;;;;1.67;1.20;;;;;;;12.09;90.13;91958.38;6161006;23;20363;-77
2023/11/06 10:50:12;;;;;;;2.30;1.20;;;;;;;12.07;95.30;91950.06;6153430;23;20463;-78
2023/11/06 10:52:39;;;;;;;3.50;1.40;;;;;;;12.02;97.15;91956.25;6137441;23;20068;-78
2023/11/06 10:55:07;;;;;;;3.13;1.20;;;;;;;12.13;100.00;91954.06;6163971;23;20397;-77
2023/11/06 10:57:33;;;;;;;1.88;1.23;;;;;;;12.53;94.37;91950.53;6164565;23;20006;-77
2023/11/06 11:00:07;;;;;;;6.93;1.40;;;;;;;12.00;100.00;91949.75;6162873;23;20081;-78
2023/11/06 11:02:55;;;;;;;2.50;1.45;;;;;;;12.36;99.86;91952.09;6161121;23;20014;-78
2023/11/06 11:05:28;;;;;;;2.15;1.35;;;;;;;12.64;96.11;91949.88;6157841;23;20013;-78
2023/11/06 11:07:56;;;;;;;1.67;1.10;;;;;;;12.39;93.40;91943.59;6158240;23;20021;-78
2023/11/06 11:10:27;;;;;;;9.32;1.52;;;;;;;12.27;98.20;91949.47;6164190;23;20001;-77
2023/11/06 11:12:56;;;;;;;2.65;1.30;;;;;;;12.28;96.31;91951.00;6162230;23;20032;-77
2023/11/06 11:15:26;;;;;;;2.40;1.40;;;;;;;12.64;97.72;91947.25;6166579;23;20002;-78
2023/11/06 11:18:00;;;;;;;2.10;1.30;;;;;;;12.96;93.15;91945.19;6166526;23;20014;-78
2023/11/06 11:20:26;;;;;;;2.60;1.40;;;;;;;13.16;95.40;91949.00;6166248;23;20021;-77
2023/11/06 11:23:12;;;;;;;5.55;1.60;;;;;;;12.83;92.67;91938.25;6167453;23;20001;-77
2023/11/06 11:25:58;;;;;;;2.20;1.48;;;;;;;12.88;92.95;91936.25;6167771;23;20028;-78
2023/11/06 11:28:25;;;;;;;2.47;1.20;;;;;;;12.97;91.27;91936.25;6167402;23;20096;-77
2023/11/06 11:30:52;;;;;;;2.22;1.40;;;;;;;13.25;91.90;91938.47;6167680;23;20011;-77
2023/11/06 11:33:56;;;;;;;3.72;1.70;;;;;;;13.40;92.41;91935.34;6167945;22;20009;-78